sensor_id;sensor_type;location;lat;lon;timestamp;pressure;altitude;pressure_sealevel;temperature;humidity
76022;BME280;64718;52.124;6.226;2023-09-19T00:00:30;100675.09;;;14.16;100.00
76022;BME280;64718;52.124;6.226;2023-09-19T00:02:59;100679.41;;;14.17;100.00
76022;BME280;64718;52.124;6.226;2023-09-19T00:05:27;100678.75;;;14.13;100.00
76022;BME280;64718;52.124;6.226;2023-09-19T00:07:54;100676.13;;;14.13;100.00
76022;BME280;64718;52.124;6.226;2023-09-19T00:10:22;100682.31;;;14.12;100.00
76022;BME280;64718;52.124;6.226;2023-09-19T00:12:50;100688.47;;;14.11;100.00
76022;BME280;64718;52.124;6.226;2023-09-19T00:15:17;100683.78;;;14.02;100.00
76022;BME280;64718;52.124;6.226;2023-09-19T00:17:44;100695.09;;;14.03;100.00
76022;BME280;64718;52.124;6.226;2023-09-19T00:20:11;100691.72;;;14.01;100.00
76022;BME280;64718;52.124;6.226;2023-09-19T00:22:43;100695.63;;;13.93;100.00
76022;BME280;64718;52.124;6.226;2023-09-19T00:25:10;100695.25;;;14.00;100.00
76022;BME280;64718;52.124;6.226;2023-09-19T00:27:37;100698.44;;;14.05;100.00
76022;BME280;64718;52.124;6.226;2023-09-19T00:30:07;100706.38;;;14.03;100.00
76022;BME280;64718;52.124;6.226;2023-09-19T00:32:39;100707.50;;;13.99;100.00
76022;BME280;64718;52.124;6.226;2023-09-19T00:35:06;100705.06;;;13.96;100.00
76022;BME280;64718;52.124;6.226;2023-09-19T00:37:34;100704.03;;;13.99;100.00
76022;BME280;64718;52.124;6.226;2023-09-19T00:40:02;100711.72;;;14.02;100.00
76022;BME280;64718;52.124;6.226;2023-09-19T00:42:30;100706.47;;;14.02;100.00
76022;BME280;64718;52.124;6.226;2023-09-19T00:44:56;100710.59;;;14.06;100.00
76022;BME280;64718;52.124;6.226;2023-09-19T00:47:23;100716.84;;;14.03;100.00
76022;BME280;64718;52.124;6.226;2023-09-19T00:49:50;100712.19;;;14.08;100.00
76022;BME280;64718;52.124;6.226;2023-09-19T00:52:18;100716.56;;;14.08;100.00
76022;BME280;64718;52.124;6.226;2023-09-19T00:54:46;100713.41;;;14.03;100.00
76022;BME280;64718;52.124;6.226;2023-09-19T00:57:14;100716.00;;;14.03;100.00
76022;BME280;64718;52.124;6.226;2023-09-19T00:59:42;100719.28;;;14.06;100.00
76022;BME280;64718;52.124;6.226;2023-09-19T01:02:10;100723.84;;;14.03;100.00
76022;BME280;64718;52.124;6.226;2023-09-19T01:04:38;100726.00;;;13.96;100.00
76022;BME280;64718;52.124;6.226;2023-09-19T01:07:05;100723.13;;;13.85;100.00
76022;BME280;64718;52.124;6.226;2023-09-19T01:09:31;100730.22;;;13.83;100.00
76022;BME280;64718;52.124;6.226;2023-09-19T01:12:02;100741.88;;;13.77;100.00
76022;BME280;64718;52.124;6.226;2023-09-19T01:14:38;100741.28;;;13.88;100.00
76022;BME280;64718;52.124;6.226;2023-09-19T01:17:16;100738.22;;;13.96;100.00
76022;BME280;64718;52.124;6.226;2023-09-19T01:20:05;100737.56;;;13.92;100.00
76022;BME280;64718;52.124;6.226;2023-09-19T01:22:42;100731.97;;;13.98;100.00
76022;BME280;64718;52.124;6.226;2023-09-19T01:25:30;100743.84;;;14.04;100.00
76022;BME280;64718;52.124;6.226;2023-09-19T01:28:11;100737.41;;;14.09;100.00
76022;BME280;64718;52.124;6.226;2023-09-19T01:30:43;100743.94;;;14.02;100.00
76022;BME280;64718;52.124;6.226;2023-09-19T01:33:10;100745.78;;;14.00;100.00
76022;BME280;64718;52.124;6.226;2023-09-19T01:35:37;100739.63;;;14.01;100.00
76022;BME280;64718;52.124;6.226;2023-09-19T01:38:04;100738.88;;;13.99;100.00
76022;BME280;64718;52.124;6.226;2023-09-19T01:40:32;100739.28;;;14.07;100.00
76022;BME280;64718;52.124;6.226;2023-09-19T01:43:05;100743.19;;;14.00;100.00
76022;BME280;64718;52.124;6.226;2023-09-19T01:45:41;100753.66;;;14.00;100.00
76022;BME280;64718;52.124;6.226;2023-09-19T01:48:19;100752.03;;;13.98;100.00
76022;BME280;64718;52.124;6.226;2023-09-19T01:50:54;100752.88;;;13.98;100.00
76022;BME280;64718;52.124;6.226;2023-09-19T01:53:24;100749.53;;;13.96;100.00
76022;BME280;64718;52.124;6.226;2023-09-19T01:55:53;100754.75;;;13.96;100.00
76022;BME280;64718;52.124;6.226;2023-09-19T01:58:25;100753.38;;;14.05;100.00
76022;BME280;64718;52.124;6.226;2023-09-19T02:00:55;100750.41;;;14.11;100.00
76022;BME280;64718;52.124;6.226;2023-09-19T02:03:26;100754.88;;;14.09;100.00
76022;BME280;64718;52.124;6.226;2023-09-19T02:05:54;100757.50;;;14.09;100.00
76022;BME280;64718;52.124;6.226;2023-09-19T02:08:22;100758.16;;;14.12;100.00
76022;BME280;64718;52.124;6.226;2023-09-19T02:10:50;100760.69;;;14.14;100.00
76022;BME280;64718;52.124;6.226;2023-09-19T02:13:18;100758.06;;;14.14;100.00
76022;BME280;64718;52.124;6.226;2023-09-19T02:15:46;100759.09;;;14.11;100.00
76022;BME280;64718;52.124;6.226;2023-09-19T02:18:12;100764.75;;;14.04;100.00
76022;BME280;64718;52.124;6.226;2023-09-19T02:20:41;100765.31;;;13.95;100.00
76022;BME280;64718;52.124;6.226;2023-09-19T02:23:08;100771.28;;;13.97;100.00
76022;BME280;64718;52.124;6.226;2023-09-19T02:25:35;100777.63;;;13.92;100.00
76022;BME280;64718;52.124;6.226;2023-09-19T02:28:03;100766.50;;;13.89;100.00
76022;BME280;64718;52.124;6.226;2023-09-19T02:30:31;100772.06;;;13.83;100.00
76022;BME280;64718;52.124;6.226;2023-09-19T02:32:58;100766.81;;;13.83;100.00
76022;BME280;64718;52.124;6.226;2023-09-19T02:35:26;100771.97;;;13.84;100.00
76022;BME280;64718;52.124;6.226;2023-09-19T02:37:54;100770.63;;;13.77;100.00
76022;BME280;64718;52.124;6.226;2023-09-19T02:40:21;100759.09;;;13.66;100.00
76022;BME280;64718;52.124;6.226;2023-09-19T02:42:49;100762.47;;;13.68;100.00
76022;BME280;64718;52.124;6.226;2023-09-19T02:45:19;100767.03;;;13.64;100.00
76022;BME280;64718;52.124;6.226;2023-09-19T02:47:46;100773.94;;;13.65;100.00
76022;BME280;64718;52.124;6.226;2023-09-19T02:50:13;100775.72;;;13.65;100.00
76022;BME280;64718;52.124;6.226;2023-09-19T02:52:41;100776.81;;;13.60;100.00
76022;BME280;64718;52.124;6.226;2023-09-19T02:55:11;100778.94;;;13.54;100.00
76022;BME280;64718;52.124;6.226;2023-09-19T02:57:39;100777.06;;;13.56;100.00
76022;BME280;64718;52.124;6.226;2023-09-19T03:00:08;100773.63;;;13.55;100.00
76022;BME280;64718;52.124;6.226;2023-09-19T03:02:36;100778.25;;;13.50;100.00
76022;BME280;64718;52.124;6.226;2023-09-19T03:05:03;100780.28;;;13.45;100.00
76022;BME280;64718;52.124;6.226;2023-09-19T03:07:30;100786.19;;;13.49;100.00
76022;BME280;64718;52.124;6.226;2023-09-19T03:09:57;100788.47;;;13.55;100.00
76022;BME280;64718;52.124;6.226;2023-09-19T03:12:25;100782.81;;;13.47;100.00
76022;BME280;64718;52.124;6.226;2023-09-19T03:14:51;100791.16;;;13.38;100.00
76022;BME280;64718;52.124;6.226;2023-09-19T03:17:18;100789.72;;;13.48;100.00
76022;BME280;64718;52.124;6.226;2023-09-19T03:19:45;100794.38;;;13.43;100.00
76022;BME280;64718;52.124;6.226;2023-09-19T03:22:12;100793.44;;;13.44;100.00
76022;BME280;64718;52.124;6.226;2023-09-19T03:24:39;100787.13;;;13.48;100.00
76022;BME280;64718;52.124;6.226;2023-09-19T03:27:08;100792.09;;;13.37;100.00
76022;BME280;64718;52.124;6.226;2023-09-19T03:29:36;100779.19;;;13.34;100.00
76022;BME280;64718;52.124;6.226;2023-09-19T03:32:04;100769.50;;;13.36;100.00
76022;BME280;64718;52.124;6.226;2023-09-19T03:34:31;100780.53;;;13.41;100.00
76022;BME280;64718;52.124;6.226;2023-09-19T03:36:57;100776.59;;;13.34;100.00
76022;BME280;64718;52.124;6.226;2023-09-19T03:39:25;100780.28;;;13.29;100.00
76022;BME280;64718;52.124;6.226;2023-09-19T03:41:51;100780.34;;;13.28;100.00
76022;BME280;64718;52.124;6.226;2023-09-19T03:44:18;100789.28;;;13.24;100.00
76022;BME280;64718;52.124;6.226;2023-09-19T03:46:46;100795.06;;;13.13;100.00
76022;BME280;64718;52.124;6.226;2023-09-19T03:49:12;100785.09;;;13.04;100.00
76022;BME280;64718;52.124;6.226;2023-09-19T03:51:39;100796.03;;;12.95;100.00
76022;BME280;64718;52.124;6.226;2023-09-19T03:54:06;100799.84;;;13.05;100.00
76022;BME280;64718;52.124;6.226;2023-09-19T03:56:33;100802.19;;;12.94;100.00
76022;BME280;64718;52.124;6.226;2023-09-19T03:59:00;100814.38;;;12.78;100.00
76022;BME280;64718;52.124;6.226;2023-09-19T04:01:26;100805.78;;;12.76;100.00
76022;BME280;64718;52.124;6.226;2023-09-19T04:03:55;100784.22;;;12.72;100.00
76022;BME280;64718;52.124;6.226;2023-09-19T04:06:22;100779.59;;;12.77;100.00
76022;BME280;64718;52.124;6.226;2023-09-19T04:08:48;100783.22;;;12.75;100.00
76022;BME280;64718;52.124;6.226;2023-09-19T04:11:15;100773.47;;;12.61;100.00
76022;BME280;64718;52.124;6.226;2023-09-19T04:13:41;100774.22;;;12.63;100.00
76022;BME280;64718;52.124;6.226;2023-09-19T04:16:08;100779.00;;;12.55;100.00
76022;BME280;64718;52.124;6.226;2023-09-19T04:18:35;100790.34;;;12.54;100.00
76022;BME280;64718;52.124;6.226;2023-09-19T04:21:05;100797.75;;;12.46;100.00
76022;BME280;64718;52.124;6.226;2023-09-19T04:23:32;100806.94;;;12.53;100.00
76022;BME280;64718;52.124;6.226;2023-09-19T04:25:59;100813.69;;;12.57;100.00
76022;BME280;64718;52.124;6.226;2023-09-19T04:28:25;100817.22;;;12.56;100.00
76022;BME280;64718;52.124;6.226;2023-09-19T04:30:53;100821.72;;;12.70;100.00
76022;BME280;64718;52.124;6.226;2023-09-19T04:33:20;100829.09;;;12.79;100.00
76022;BME280;64718;52.124;6.226;2023-09-19T04:35:49;100830.03;;;12.78;100.00
76022;BME280;64718;52.124;6.226;2023-09-19T04:38:17;100827.34;;;12.79;100.00
76022;BME280;64718;52.124;6.226;2023-09-19T04:40:44;100832.22;;;12.85;100.00
76022;BME280;64718;52.124;6.226;2023-09-19T04:43:11;100839.91;;;12.88;100.00
76022;BME280;64718;52.124;6.226;2023-09-19T04:45:38;100831.22;;;12.88;100.00
76022;BME280;64718;52.124;6.226;2023-09-19T04:48:05;100842.69;;;12.85;100.00
76022;BME280;64718;52.124;6.226;2023-09-19T04:50:34;100836.28;;;12.91;100.00
76022;BME280;64718;52.124;6.226;2023-09-19T04:53:02;100842.59;;;12.87;100.00
76022;BME280;64718;52.124;6.226;2023-09-19T04:55:31;100841.66;;;12.88;100.00
76022;BME280;64718;52.124;6.226;2023-09-19T04:57:58;100844.16;;;12.74;100.00
76022;BME280;64718;52.124;6.226;2023-09-19T05:00:24;100851.06;;;12.75;100.00
76022;BME280;64718;52.124;6.226;2023-09-19T05:02:55;100863.19;;;12.76;100.00
76022;BME280;64718;52.124;6.226;2023-09-19T05:05:22;100847.28;;;12.80;100.00
76022;BME280;64718;52.124;6.226;2023-09-19T05:07:51;100858.06;;;12.74;100.00
76022;BME280;64718;52.124;6.226;2023-09-19T05:10:19;100858.13;;;12.73;100.00
76022;BME280;64718;52.124;6.226;2023-09-19T05:12:47;100852.28;;;12.85;100.00
76022;BME280;64718;52.124;6.226;2023-09-19T05:15:17;100852.03;;;12.89;100.00
76022;BME280;64718;52.124;6.226;2023-09-19T05:17:47;100853.72;;;12.90;100.00
76022;BME280;64718;52.124;6.226;2023-09-19T05:20:15;100852.59;;;12.79;100.00
76022;BME280;64718;52.124;6.226;2023-09-19T05:22:50;100844.69;;;12.80;100.00
76022;BME280;64718;52.124;6.226;2023-09-19T05:25:16;100853.19;;;12.84;100.00
76022;BME280;64718;52.124;6.226;2023-09-19T05:27:44;100854.53;;;12.75;100.00
76022;BME280;64718;52.124;6.226;2023-09-19T05:30:12;100847.75;;;12.88;100.00
76022;BME280;64718;52.124;6.226;2023-09-19T05:32:41;100849.19;;;12.94;100.00
76022;BME280;64718;52.124;6.226;2023-09-19T05:35:09;100859.47;;;12.97;100.00
76022;BME280;64718;52.124;6.226;2023-09-19T05:37:37;100847.94;;;13.01;100.00
76022;BME280;64718;52.124;6.226;2023-09-19T05:40:05;100858.91;;;13.08;100.00
76022;BME280;64718;52.124;6.226;2023-09-19T05:42:35;100863.19;;;13.09;100.00
76022;BME280;64718;52.124;6.226;2023-09-19T05:45:03;100857.81;;;13.12;100.00
76022;BME280;64718;52.124;6.226;2023-09-19T05:47:33;100858.97;;;13.23;100.00
76022;BME280;64718;52.124;6.226;2023-09-19T05:49:59;100860.03;;;13.19;100.00
76022;BME280;64718;52.124;6.226;2023-09-19T05:52:26;100866.13;;;13.20;100.00
76022;BME280;64718;52.124;6.226;2023-09-19T05:54:52;100862.88;;;13.32;100.00
76022;BME280;64718;52.124;6.226;2023-09-19T05:57:19;100863.81;;;13.31;100.00
76022;BME280;64718;52.124;6.226;2023-09-19T05:59:47;100858.78;;;13.26;100.00
76022;BME280;64718;52.124;6.226;2023-09-19T06:02:15;100852.81;;;13.24;100.00
76022;BME280;64718;52.124;6.226;2023-09-19T06:04:45;100857.88;;;13.27;100.00
76022;BME280;64718;52.124;6.226;2023-09-19T06:07:12;100863.41;;;13.21;100.00
76022;BME280;64718;52.124;6.226;2023-09-19T06:09:38;100864.25;;;13.22;100.00
76022;BME280;64718;52.124;6.226;2023-09-19T06:12:06;100882.72;;;13.19;100.00
76022;BME280;64718;52.124;6.226;2023-09-19T06:14:32;100875.47;;;13.24;100.00
76022;BME280;64718;52.124;6.226;2023-09-19T06:16:59;100878.00;;;13.25;100.00
76022;BME280;64718;52.124;6.226;2023-09-19T06:19:26;100882.09;;;13.31;100.00
76022;BME280;64718;52.124;6.226;2023-09-19T06:21:54;100881.75;;;13.37;100.00
76022;BME280;64718;52.124;6.226;2023-09-19T06:24:20;100882.03;;;13.48;100.00
76022;BME280;64718;52.124;6.226;2023-09-19T06:26:47;100887.34;;;13.63;100.00
76022;BME280;64718;52.124;6.226;2023-09-19T06:29:14;100883.13;;;13.76;100.00
76022;BME280;64718;52.124;6.226;2023-09-19T06:31:41;100876.72;;;13.97;100.00
76022;BME280;64718;52.124;6.226;2023-09-19T06:34:08;100890.31;;;14.04;100.00
76022;BME280;64718;52.124;6.226;2023-09-19T06:36:35;100883.16;;;13.91;100.00
76022;BME280;64718;52.124;6.226;2023-09-19T06:39:02;100902.78;;;13.99;100.00
76022;BME280;64718;52.124;6.226;2023-09-19T06:41:31;100903.72;;;14.13;100.00
76022;BME280;64718;52.124;6.226;2023-09-19T06:43:58;100905.59;;;14.41;100.00
76022;BME280;64718;52.124;6.226;2023-09-19T06:46:24;100916.91;;;14.42;100.00
76022;BME280;64718;52.124;6.226;2023-09-19T06:48:51;100913.22;;;14.76;100.00
76022;BME280;64718;52.124;6.226;2023-09-19T06:51:18;100910.41;;;15.23;100.00
76022;BME280;64718;52.124;6.226;2023-09-19T06:53:45;100904.22;;;15.24;100.00
76022;BME280;64718;52.124;6.226;2023-09-19T06:56:13;100902.31;;;14.98;100.00
76022;BME280;64718;52.124;6.226;2023-09-19T06:58:39;100905.28;;;14.77;100.00
76022;BME280;64718;52.124;6.226;2023-09-19T07:01:08;100909.56;;;14.78;100.00
76022;BME280;64718;52.124;6.226;2023-09-19T07:03:35;100890.59;;;14.89;100.00
76022;BME280;64718;52.124;6.226;2023-09-19T07:06:02;100887.34;;;14.85;100.00
76022;BME280;64718;52.124;6.226;2023-09-19T07:08:29;100889.78;;;14.88;100.00
76022;BME280;64718;52.124;6.226;2023-09-19T07:10:56;100893.38;;;14.72;100.00
76022;BME280;64718;52.124;6.226;2023-09-19T07:13:24;100893.69;;;14.81;100.00
76022;BME280;64718;52.124;6.226;2023-09-19T07:15:51;100902.84;;;14.74;100.00
76022;BME280;64718;52.124;6.226;2023-09-19T07:18:17;100900.41;;;14.71;100.00
76022;BME280;64718;52.124;6.226;2023-09-19T07:20:45;100907.44;;;14.85;100.00
76022;BME280;64718;52.124;6.226;2023-09-19T07:23:14;100895.63;;;15.08;100.00
76022;BME280;64718;52.124;6.226;2023-09-19T07:25:40;100895.72;;;15.21;100.00
76022;BME280;64718;52.124;6.226;2023-09-19T07:28:07;100906.63;;;14.99;100.00
76022;BME280;64718;52.124;6.226;2023-09-19T07:30:37;100900.84;;;15.22;100.00
76022;BME280;64718;52.124;6.226;2023-09-19T07:33:04;100906.66;;;15.13;100.00
76022;BME280;64718;52.124;6.226;2023-09-19T07:35:31;100895.06;;;15.31;100.00
76022;BME280;64718;52.124;6.226;2023-09-19T07:37:58;100906.72;;;15.54;100.00
76022;BME280;64718;52.124;6.226;2023-09-19T07:40:26;100898.44;;;15.62;100.00
76022;BME280;64718;52.124;6.226;2023-09-19T07:42:54;100899.25;;;15.48;100.00
76022;BME280;64718;52.124;6.226;2023-09-19T07:45:21;100901.13;;;15.74;100.00
76022;BME280;64718;52.124;6.226;2023-09-19T07:47:50;100903.69;;;15.62;100.00
76022;BME280;64718;52.124;6.226;2023-09-19T07:50:18;100910.88;;;15.72;100.00
76022;BME280;64718;52.124;6.226;2023-09-19T07:52:45;100901.53;;;15.68;100.00
76022;BME280;64718;52.124;6.226;2023-09-19T07:55:12;100912.34;;;15.91;100.00
76022;BME280;64718;52.124;6.226;2023-09-19T07:57:41;100918.22;;;15.94;100.00
76022;BME280;64718;52.124;6.226;2023-09-19T08:00:08;100918.94;;;15.69;100.00
76022;BME280;64718;52.124;6.226;2023-09-19T08:02:37;100914.59;;;15.82;100.00
76022;BME280;64718;52.124;6.226;2023-09-19T08:05:05;100912.00;;;16.36;100.00
76022;BME280;64718;52.124;6.226;2023-09-19T08:07:32;100918.72;;;16.67;99.61
76022;BME280;64718;52.124;6.226;2023-09-19T08:09:59;100921.34;;;16.67;99.10
76022;BME280;64718;52.124;6.226;2023-09-19T08:12:25;100917.31;;;17.14;97.30
76022;BME280;64718;52.124;6.226;2023-09-19T08:14:52;100914.16;;;17.22;95.92
76022;BME280;64718;52.124;6.226;2023-09-19T08:17:20;100918.78;;;17.44;95.63
76022;BME280;64718;52.124;6.226;2023-09-19T08:19:48;100909.94;;;17.19;97.29
76022;BME280;64718;52.124;6.226;2023-09-19T08:22:19;100919.41;;;17.47;94.74
76022;BME280;64718;52.124;6.226;2023-09-19T08:24:46;100915.94;;;16.96;95.64
76022;BME280;64718;52.124;6.226;2023-09-19T08:27:13;100932.88;;;17.30;95.61
76022;BME280;64718;52.124;6.226;2023-09-19T08:29:40;100923.81;;;17.21;93.17
76022;BME280;64718;52.124;6.226;2023-09-19T08:32:07;100916.16;;;17.18;94.66
76022;BME280;64718;52.124;6.226;2023-09-19T08:34:34;100936.22;;;17.19;93.29
76022;BME280;64718;52.124;6.226;2023-09-19T08:37:03;100930.03;;;17.07;95.75
76022;BME280;64718;52.124;6.226;2023-09-19T08:39:31;100915.69;;;17.62;92.63
76022;BME280;64718;52.124;6.226;2023-09-19T08:42:01;100921.66;;;17.90;92.29
76022;BME280;64718;52.124;6.226;2023-09-19T08:44:28;100926.94;;;17.77;93.08
76022;BME280;64718;52.124;6.226;2023-09-19T08:47:01;100926.16;;;18.24;91.11
76022;BME280;64718;52.124;6.226;2023-09-19T08:49:36;100929.31;;;17.44;92.46
76022;BME280;64718;52.124;6.226;2023-09-19T08:52:09;100921.00;;;17.37;93.52
76022;BME280;64718;52.124;6.226;2023-09-19T08:54:40;100922.47;;;17.16;94.11
76022;BME280;64718;52.124;6.226;2023-09-19T08:57:09;100917.47;;;16.73;96.45
76022;BME280;64718;52.124;6.226;2023-09-19T08:59:38;100930.34;;;17.16;95.25
76022;BME280;64718;52.124;6.226;2023-09-19T09:02:11;100915.72;;;16.99;95.49
76022;BME280;64718;52.124;6.226;2023-09-19T09:04:39;100923.41;;;17.40;94.43
76022;BME280;64718;52.124;6.226;2023-09-19T09:07:06;100923.06;;;17.57;94.06
76022;BME280;64718;52.124;6.226;2023-09-19T09:09:36;100915.25;;;17.94;92.74
76022;BME280;64718;52.124;6.226;2023-09-19T09:12:09;100915.97;;;17.83;92.11
76022;BME280;64718;52.124;6.226;2023-09-19T09:14:37;100919.16;;;17.76;92.97
76022;BME280;64718;52.124;6.226;2023-09-19T09:17:04;100911.72;;;17.57;94.38
76022;BME280;64718;52.124;6.226;2023-09-19T09:19:31;100900.63;;;17.77;92.55
76022;BME280;64718;52.124;6.226;2023-09-19T09:22:06;100904.69;;;17.45;93.53
76022;BME280;64718;52.124;6.226;2023-09-19T09:24:32;100895.66;;;17.85;93.44
76022;BME280;64718;52.124;6.226;2023-09-19T09:26:59;100898.13;;;17.63;93.00
76022;BME280;64718;52.124;6.226;2023-09-19T09:29:45;100904.91;;;17.91;92.91
76022;BME280;64718;52.124;6.226;2023-09-19T09:32:22;100903.50;;;17.74;91.84
76022;BME280;64718;52.124;6.226;2023-09-19T09:34:51;100906.81;;;17.89;92.37
76022;BME280;64718;52.124;6.226;2023-09-19T09:37:18;100910.16;;;17.91;92.00
76022;BME280;64718;52.124;6.226;2023-09-19T09:39:50;100910.09;;;17.80;89.76
76022;BME280;64718;52.124;6.226;2023-09-19T09:42:32;100904.78;;;18.05;89.54
76022;BME280;64718;52.124;6.226;2023-09-19T09:45:18;100892.44;;;18.29;88.30
76022;BME280;64718;52.124;6.226;2023-09-19T09:47:54;100891.03;;;18.13;88.73
76022;BME280;64718;52.124;6.226;2023-09-19T09:50:28;100898.44;;;18.31;87.08
76022;BME280;64718;52.124;6.226;2023-09-19T09:53:03;100889.94;;;18.39;87.14
76022;BME280;64718;52.124;6.226;2023-09-19T09:55:57;100892.31;;;18.55;87.27
76022;BME280;64718;52.124;6.226;2023-09-19T09:58:23;100885.19;;;18.44;85.28
76022;BME280;64718;52.124;6.226;2023-09-19T10:00:56;100895.78;;;18.55;84.84
76022;BME280;64718;52.124;6.226;2023-09-19T10:03:32;100898.25;;;18.70;83.87
76022;BME280;64718;52.124;6.226;2023-09-19T10:06:04;100897.00;;;18.39;81.69
76022;BME280;64718;52.124;6.226;2023-09-19T10:09:00;100883.66;;;18.18;83.85
76022;BME280;64718;52.124;6.226;2023-09-19T10:11:42;100904.16;;;18.25;83.33
76022;BME280;64718;52.124;6.226;2023-09-19T10:14:10;100903.19;;;18.26;82.90
76022;BME280;64718;52.124;6.226;2023-09-19T10:16:41;100901.22;;;18.41;82.17
76022;BME280;64718;52.124;6.226;2023-09-19T10:19:15;100904.03;;;18.51;82.69
76022;BME280;64718;52.124;6.226;2023-09-19T10:21:42;100899.06;;;18.46;82.38
76022;BME280;64718;52.124;6.226;2023-09-19T10:24:11;100901.59;;;18.72;83.03
76022;BME280;64718;52.124;6.226;2023-09-19T10:26:41;100885.56;;;18.86;81.34
76022;BME280;64718;52.124;6.226;2023-09-19T10:29:10;100884.16;;;19.04;79.93
76022;BME280;64718;52.124;6.226;2023-09-19T10:31:42;100882.16;;;19.30;79.02
76022;BME280;64718;52.124;6.226;2023-09-19T10:34:14;100886.19;;;18.89;78.78
76022;BME280;64718;52.124;6.226;2023-09-19T10:36:44;100882.22;;;18.95;79.91
76022;BME280;64718;52.124;6.226;2023-09-19T10:39:14;100871.38;;;19.22;80.01
76022;BME280;64718;52.124;6.226;2023-09-19T10:41:47;100876.41;;;19.14;80.42
76022;BME280;64718;52.124;6.226;2023-09-19T10:44:21;100881.66;;;19.36;78.63
76022;BME280;64718;52.124;6.226;2023-09-19T10:46:50;100882.53;;;19.14;80.78
76022;BME280;64718;52.124;6.226;2023-09-19T10:49:18;100890.13;;;18.84;81.40
76022;BME280;64718;52.124;6.226;2023-09-19T10:51:46;100885.00;;;18.58;81.33
76022;BME280;64718;52.124;6.226;2023-09-19T10:54:16;100890.03;;;18.50;80.50
76022;BME280;64718;52.124;6.226;2023-09-19T10:56:48;100882.78;;;18.65;81.14
76022;BME280;64718;52.124;6.226;2023-09-19T10:59:17;100883.56;;;18.54;81.01
76022;BME280;64718;52.124;6.226;2023-09-19T11:01:46;100880.63;;;18.70;80.42
76022;BME280;64718;52.124;6.226;2023-09-19T11:04:26;100876.75;;;19.09;81.25
76022;BME280;64718;52.124;6.226;2023-09-19T11:07:03;100866.88;;;18.78;79.01
76022;BME280;64718;52.124;6.226;2023-09-19T11:09:47;100856.38;;;19.11;80.51
76022;BME280;64718;52.124;6.226;2023-09-19T11:18:53;100842.56;;;18.96;80.40
76022;BME280;64718;52.124;6.226;2023-09-19T11:21:52;100856.47;;;18.87;80.42
76022;BME280;64718;52.124;6.226;2023-09-19T11:24:30;100847.59;;;19.00;79.97
76022;BME280;64718;52.124;6.226;2023-09-19T11:27:12;100826.75;;;18.96;79.21
76022;BME280;64718;52.124;6.226;2023-09-19T11:29:40;100820.16;;;19.02;78.86
76022;BME280;64718;52.124;6.226;2023-09-19T11:32:07;100827.34;;;19.00;79.47
76022;BME280;64718;52.124;6.226;2023-09-19T11:34:47;100822.44;;;18.95;78.79
76022;BME280;64718;52.124;6.226;2023-09-19T11:40:37;100828.66;;;18.83;79.32
76022;BME280;64718;52.124;6.226;2023-09-19T11:43:32;100829.03;;;18.90;79.74
76022;BME280;64718;52.124;6.226;2023-09-19T11:46:07;100831.56;;;18.91;79.31
76022;BME280;64718;52.124;6.226;2023-09-19T11:48:35;100836.69;;;18.93;80.58
76022;BME280;64718;52.124;6.226;2023-09-19T11:51:09;100819.31;;;19.35;78.48
76022;BME280;64718;52.124;6.226;2023-09-19T11:53:42;100830.22;;;18.97;79.03
76022;BME280;64718;52.124;6.226;2023-09-19T11:56:12;100832.16;;;19.06;79.91
76022;BME280;64718;52.124;6.226;2023-09-19T11:58:41;100829.78;;;19.14;79.87
76022;BME280;64718;52.124;6.226;2023-09-19T12:01:09;100819.31;;;19.46;77.44
76022;BME280;64718;52.124;6.226;2023-09-19T12:03:46;100813.56;;;19.52;75.14
76022;BME280;64718;52.124;6.226;2023-09-19T12:06:15;100812.59;;;19.53;76.17
76022;BME280;64718;52.124;6.226;2023-09-19T12:08:42;100797.59;;;19.54;72.84
76022;BME280;64718;52.124;6.226;2023-09-19T12:11:13;100809.97;;;19.53;74.08
76022;BME280;64718;52.124;6.226;2023-09-19T12:13:45;100809.84;;;19.55;75.43
76022;BME280;64718;52.124;6.226;2023-09-19T12:16:13;100807.66;;;19.49;73.60
76022;BME280;64718;52.124;6.226;2023-09-19T12:18:41;100822.41;;;19.74;74.71
76022;BME280;64718;52.124;6.226;2023-09-19T12:21:21;100820.31;;;19.88;73.63
76022;BME280;64718;52.124;6.226;2023-09-19T12:24:06;100813.66;;;19.73;73.41
76022;BME280;64718;52.124;6.226;2023-09-19T12:26:42;100805.03;;;19.71;72.69
76022;BME280;64718;52.124;6.226;2023-09-19T12:29:13;100792.81;;;19.37;73.00
76022;BME280;64718;52.124;6.226;2023-09-19T12:31:50;100796.88;;;19.41;73.38
76022;BME280;64718;52.124;6.226;2023-09-19T12:34:19;100804.91;;;19.62;73.62
76022;BME280;64718;52.124;6.226;2023-09-19T12:36:46;100808.25;;;19.64;73.21
76022;BME280;64718;52.124;6.226;2023-09-19T12:39:22;100815.94;;;19.99;71.46
76022;BME280;64718;52.124;6.226;2023-09-19T12:41:51;100813.19;;;20.00;70.54
76022;BME280;64718;52.124;6.226;2023-09-19T12:44:18;100807.72;;;20.13;71.14
76022;BME280;64718;52.124;6.226;2023-09-19T12:46:45;100799.06;;;19.90;72.28
76022;BME280;64718;52.124;6.226;2023-09-19T12:49:15;100810.94;;;19.96;73.20
76022;BME280;64718;52.124;6.226;2023-09-19T12:51:44;100804.22;;;19.92;72.53
76022;BME280;64718;52.124;6.226;2023-09-19T12:54:11;100812.69;;;19.74;73.21
76022;BME280;64718;52.124;6.226;2023-09-19T12:56:40;100798.19;;;19.69;75.00
76022;BME280;64718;52.124;6.226;2023-09-19T12:59:12;100801.66;;;19.47;72.74
76022;BME280;64718;52.124;6.226;2023-09-19T13:01:40;100793.75;;;19.47;72.31
76022;BME280;64718;52.124;6.226;2023-09-19T13:04:11;100793.31;;;19.31;73.21